sensor_id;sensor_type;location;lat;lon;timestamp;temperature;humidity
22908;DHT22;11620;50.050;8.690;2023-08-06T00:00:37;14.70;99.90
22908;DHT22;11620;50.050;8.690;2023-08-06T00:03:24;14.80;99.90
22908;DHT22;11620;50.050;8.690;2023-08-06T00:06:10;14.90;99.90
22908;DHT22;11620;50.050;8.690;2023-08-06T00:08:56;15.00;99.90
22908;DHT22;11620;50.050;8.690;2023-08-06T00:11:42;15.00;99.90
22908;DHT22;11620;50.050;8.690;2023-08-06T00:14:30;15.00;99.90
22908;DHT22;11620;50.050;8.690;2023-08-06T00:17:16;15.00;99.90
22908;DHT22;11620;50.050;8.690;2023-08-06T00:20:04;15.00;99.90
22908;DHT22;11620;50.050;8.690;2023-08-06T00:22:52;14.90;99.90
22908;DHT22;11620;50.050;8.690;2023-08-06T00:25:38;14.90;99.90
22908;DHT22;11620;50.050;8.690;2023-08-06T00:28:24;14.80;99.90
22908;DHT22;11620;50.050;8.690;2023-08-06T00:31:11;14.80;99.90
22908;DHT22;11620;50.050;8.690;2023-08-06T00:33:57;14.90;99.90
22908;DHT22;11620;50.050;8.690;2023-08-06T00:36:43;14.90;99.90
22908;DHT22;11620;50.050;8.690;2023-08-06T00:39:30;14.80;99.90
22908;DHT22;11620;50.050;8.690;2023-08-06T00:42:16;14.80;99.90
22908;DHT22;11620;50.050;8.690;2023-08-06T00:45:07;14.80;99.90
22908;DHT22;11620;50.050;8.690;2023-08-06T00:47:53;14.80;99.90
22908;DHT22;11620;50.050;8.690;2023-08-06T00:50:40;14.80;99.90
22908;DHT22;11620;50.050;8.690;2023-08-06T00:53:26;14.90;99.90
22908;DHT22;11620;50.050;8.690;2023-08-06T00:56:13;14.80;99.90
22908;DHT22;11620;50.050;8.690;2023-08-06T00:59:00;14.80;99.90
22908;DHT22;11620;50.050;8.690;2023-08-06T01:01:47;14.60;99.90
22908;DHT22;11620;50.050;8.690;2023-08-06T01:04:33;14.70;99.90
22908;DHT22;11620;50.050;8.690;2023-08-06T01:10:54;14.50;99.90
22908;DHT22;11620;50.050;8.690;2023-08-06T01:13:50;14.60;99.90
22908;DHT22;11620;50.050;8.690;2023-08-06T01:16:39;14.70;99.90
22908;DHT22;11620;50.050;8.690;2023-08-06T01:19:26;14.70;99.90
22908;DHT22;11620;50.050;8.690;2023-08-06T01:22:12;14.60;99.90
22908;DHT22;11620;50.050;8.690;2023-08-06T01:24:59;14.60;99.90
22908;DHT22;11620;50.050;8.690;2023-08-06T01:27:49;14.70;99.90
22908;DHT22;11620;50.050;8.690;2023-08-06T01:30:39;14.60;99.90
22908;DHT22;11620;50.050;8.690;2023-08-06T01:33:28;14.70;99.90
22908;DHT22;11620;50.050;8.690;2023-08-06T01:36:17;14.70;99.90
22908;DHT22;11620;50.050;8.690;2023-08-06T01:39:05;14.80;99.90
22908;DHT22;11620;50.050;8.690;2023-08-06T01:41:51;14.80;99.90
22908;DHT22;11620;50.050;8.690;2023-08-06T01:44:37;14.90;99.90
22908;DHT22;11620;50.050;8.690;2023-08-06T01:47:24;14.90;99.90
22908;DHT22;11620;50.050;8.690;2023-08-06T01:50:10;14.90;99.90
22908;DHT22;11620;50.050;8.690;2023-08-06T01:52:56;14.80;99.90
22908;DHT22;11620;50.050;8.690;2023-08-06T01:55:50;14.80;99.90
22908;DHT22;11620;50.050;8.690;2023-08-06T01:58:36;14.80;99.90
22908;DHT22;11620;50.050;8.690;2023-08-06T02:01:23;14.90;99.90
22908;DHT22;11620;50.050;8.690;2023-08-06T02:04:09;14.80;99.90
22908;DHT22;11620;50.050;8.690;2023-08-06T02:06:55;14.90;99.90
22908;DHT22;11620;50.050;8.690;2023-08-06T02:09:42;14.80;99.90
22908;DHT22;11620;50.050;8.690;2023-08-06T02:12:28;14.90;99.90
22908;DHT22;11620;50.050;8.690;2023-08-06T02:15:14;14.80;99.90
22908;DHT22;11620;50.050;8.690;2023-08-06T02:18:01;14.80;99.90
22908;DHT22;11620;50.050;8.690;2023-08-06T02:20:57;14.80;99.90
22908;DHT22;11620;50.050;8.690;2023-08-06T02:23:44;14.70;99.90
22908;DHT22;11620;50.050;8.690;2023-08-06T02:26:30;14.80;99.90
22908;DHT22;11620;50.050;8.690;2023-08-06T02:29:17;14.80;99.90
22908;DHT22;11620;50.050;8.690;2023-08-06T02:32:04;14.80;99.90
22908;DHT22;11620;50.050;8.690;2023-08-06T02:34:50;14.70;99.90
22908;DHT22;11620;50.050;8.690;2023-08-06T02:37:37;14.60;99.90
22908;DHT22;11620;50.050;8.690;2023-08-06T02:40:23;14.70;99.90
22908;DHT22;11620;50.050;8.690;2023-08-06T02:43:09;14.70;99.90
22908;DHT22;11620;50.050;8.690;2023-08-06T02:45:59;14.60;99.90
22908;DHT22;11620;50.050;8.690;2023-08-06T02:48:46;14.60;99.90
22908;DHT22;11620;50.050;8.690;2023-08-06T02:51:32;14.60;99.90
22908;DHT22;11620;50.050;8.690;2023-08-06T02:54:19;14.60;99.90
22908;DHT22;11620;50.050;8.690;2023-08-06T02:57:06;14.50;99.90
22908;DHT22;11620;50.050;8.690;2023-08-06T02:59:52;14.50;99.90
22908;DHT22;11620;50.050;8.690;2023-08-06T03:02:38;14.60;99.90
22908;DHT22;11620;50.050;8.690;2023-08-06T03:05:25;14.60;99.90
22908;DHT22;11620;50.050;8.690;2023-08-06T03:08:11;14.60;99.90
22908;DHT22;11620;50.050;8.690;2023-08-06T03:10:57;14.70;99.90
22908;DHT22;11620;50.050;8.690;2023-08-06T03:13:44;14.70;99.90
22908;DHT22;11620;50.050;8.690;2023-08-06T03:16:30;14.70;99.90
22908;DHT22;11620;50.050;8.690;2023-08-06T03:19:16;14.80;99.90
22908;DHT22;11620;50.050;8.690;2023-08-06T03:22:03;14.80;99.90
22908;DHT22;11620;50.050;8.690;2023-08-06T03:24:52;14.70;99.90
22908;DHT22;11620;50.050;8.690;2023-08-06T03:27:38;14.70;99.90
22908;DHT22;11620;50.050;8.690;2023-08-06T03:30:25;14.60;99.90
22908;DHT22;11620;50.050;8.690;2023-08-06T03:33:11;14.60;99.90
22908;DHT22;11620;50.050;8.690;2023-08-06T03:35:57;14.50;99.90
22908;DHT22;11620;50.050;8.690;2023-08-06T03:38:44;14.50;99.90
22908;DHT22;11620;50.050;8.690;2023-08-06T03:41:30;14.50;99.90
22908;DHT22;11620;50.050;8.690;2023-08-06T03:44:16;14.40;99.90
22908;DHT22;11620;50.050;8.690;2023-08-06T03:47:03;14.50;99.90
22908;DHT22;11620;50.050;8.690;2023-08-06T03:49:49;14.50;99.90
22908;DHT22;11620;50.050;8.690;2023-08-06T03:52:35;14.40;99.90
22908;DHT22;11620;50.050;8.690;2023-08-06T03:55:22;14.30;99.90
22908;DHT22;11620;50.050;8.690;2023-08-06T03:58:08;14.10;99.90
22908;DHT22;11620;50.050;8.690;2023-08-06T04:01:01;14.10;99.90
22908;DHT22;11620;50.050;8.690;2023-08-06T04:03:48;13.90;99.90
22908;DHT22;11620;50.050;8.690;2023-08-06T04:06:35;13.80;99.90
22908;DHT22;11620;50.050;8.690;2023-08-06T04:09:21;13.90;99.90
22908;DHT22;11620;50.050;8.690;2023-08-06T04:12:07;13.60;99.90
22908;DHT22;11620;50.050;8.690;2023-08-06T04:14:55;13.60;99.90
22908;DHT22;11620;50.050;8.690;2023-08-06T04:17:41;13.60;99.90
22908;DHT22;11620;50.050;8.690;2023-08-06T04:20:28;13.70;99.90
22908;DHT22;11620;50.050;8.690;2023-08-06T04:23:14;13.70;99.90
22908;DHT22;11620;50.050;8.690;2023-08-06T04:26:00;13.70;99.90
22908;DHT22;11620;50.050;8.690;2023-08-06T04:28:46;13.70;99.90
22908;DHT22;11620;50.050;8.690;2023-08-06T04:31:33;13.40;99.90
22908;DHT22;11620;50.050;8.690;2023-08-06T04:34:19;13.50;99.90
22908;DHT22;11620;50.050;8.690;2023-08-06T04:37:05;13.40;99.90
22908;DHT22;11620;50.050;8.690;2023-08-06T04:39:52;13.40;99.90
22908;DHT22;11620;50.050;8.690;2023-08-06T04:42:38;13.40;99.90
22908;DHT22;11620;50.050;8.690;2023-08-06T04:45:24;13.60;99.90
22908;DHT22;11620;50.050;8.690;2023-08-06T04:48:11;13.60;99.90
22908;DHT22;11620;50.050;8.690;2023-08-06T04:50:57;13.60;99.90
22908;DHT22;11620;50.050;8.690;2023-08-06T04:53:43;13.60;99.90
22908;DHT22;11620;50.050;8.690;2023-08-06T04:56:30;13.30;99.90
22908;DHT22;11620;50.050;8.690;2023-08-06T04:59:16;13.30;99.90
22908;DHT22;11620;50.050;8.690;2023-08-06T05:02:02;13.40;99.90
22908;DHT22;11620;50.050;8.690;2023-08-06T05:04:49;13.50;99.90
22908;DHT22;11620;50.050;8.690;2023-08-06T05:07:35;13.60;99.90
22908;DHT22;11620;50.050;8.690;2023-08-06T05:10:24;13.60;99.90
22908;DHT22;11620;50.050;8.690;2023-08-06T05:13:10;13.40;99.90
22908;DHT22;11620;50.050;8.690;2023-08-06T05:15:56;13.30;99.90
22908;DHT22;11620;50.050;8.690;2023-08-06T05:18:43;13.20;99.90
22908;DHT22;11620;50.050;8.690;2023-08-06T05:21:29;13.20;99.90
22908;DHT22;11620;50.050;8.690;2023-08-06T05:24:15;13.30;99.90
22908;DHT22;11620;50.050;8.690;2023-08-06T05:27:02;13.20;99.90
22908;DHT22;11620;50.050;8.690;2023-08-06T05:29:48;13.40;99.90
22908;DHT22;11620;50.050;8.690;2023-08-06T05:32:35;13.50;99.90
22908;DHT22;11620;50.050;8.690;2023-08-06T05:35:22;13.30;99.90
22908;DHT22;11620;50.050;8.690;2023-08-06T05:38:08;13.20;99.90
22908;DHT22;11620;50.050;8.690;2023-08-06T05:40:54;13.20;99.90
22908;DHT22;11620;50.050;8.690;2023-08-06T05:43:41;13.30;99.90
22908;DHT22;11620;50.050;8.690;2023-08-06T05:46:27;13.20;99.90
22908;DHT22;11620;50.050;8.690;2023-08-06T05:49:13;13.10;99.90
22908;DHT22;11620;50.050;8.690;2023-08-06T05:52:00;13.20;99.90
22908;DHT22;11620;50.050;8.690;2023-08-06T05:54:46;13.20;99.90
22908;DHT22;11620;50.050;8.690;2023-08-06T05:57:32;13.20;99.90
22908;DHT22;11620;50.050;8.690;2023-08-06T06:00:20;13.00;99.90
22908;DHT22;11620;50.050;8.690;2023-08-06T06:03:06;13.10;99.90
22908;DHT22;11620;50.050;8.690;2023-08-06T06:05:53;13.00;99.90
22908;DHT22;11620;50.050;8.690;2023-08-06T06:08:39;13.10;99.90
22908;DHT22;11620;50.050;8.690;2023-08-06T06:11:25;12.90;99.90
22908;DHT22;11620;50.050;8.690;2023-08-06T06:14:12;12.90;99.90
22908;DHT22;11620;50.050;8.690;2023-08-06T06:16:59;12.90;99.90
22908;DHT22;11620;50.050;8.690;2023-08-06T06:19:46;13.00;99.90
22908;DHT22;11620;50.050;8.690;2023-08-06T06:22:32;12.90;99.90
22908;DHT22;11620;50.050;8.690;2023-08-06T06:25:19;13.10;99.90
22908;DHT22;11620;50.050;8.690;2023-08-06T06:28:05;13.20;99.90
22908;DHT22;11620;50.050;8.690;2023-08-06T06:30:52;13.10;99.90
22908;DHT22;11620;50.050;8.690;2023-08-06T06:33:38;13.20;99.90
22908;DHT22;11620;50.050;8.690;2023-08-06T06:36:24;13.30;99.90
22908;DHT22;11620;50.050;8.690;2023-08-06T06:39:10;13.20;99.90
22908;DHT22;11620;50.050;8.690;2023-08-06T06:41:57;13.20;99.90
22908;DHT22;11620;50.050;8.690;2023-08-06T06:44:43;13.40;99.90
22908;DHT22;11620;50.050;8.690;2023-08-06T06:47:29;13.10;99.90
22908;DHT22;11620;50.050;8.690;2023-08-06T06:50:16;13.20;99.90
22908;DHT22;11620;50.050;8.690;2023-08-06T06:53:02;13.20;99.90
22908;DHT22;11620;50.050;8.690;2023-08-06T06:55:48;13.30;99.90
22908;DHT22;11620;50.050;8.690;2023-08-06T06:58:35;13.40;99.90
22908;DHT22;11620;50.050;8.690;2023-08-06T07:01:21;13.20;99.90
22908;DHT22;11620;50.050;8.690;2023-08-06T07:04:08;13.00;99.90
22908;DHT22;11620;50.050;8.690;2023-08-06T07:06:54;13.00;99.90
22908;DHT22;11620;50.050;8.690;2023-08-06T07:09:40;13.00;99.90
22908;DHT22;11620;50.050;8.690;2023-08-06T07:12:27;13.10;99.90
22908;DHT22;11620;50.050;8.690;2023-08-06T07:15:13;13.00;99.90
22908;DHT22;11620;50.050;8.690;2023-08-06T07:17:59;13.00;99.90
22908;DHT22;11620;50.050;8.690;2023-08-06T07:20:50;12.90;99.90
22908;DHT22;11620;50.050;8.690;2023-08-06T07:23:36;13.00;99.90
22908;DHT22;11620;50.050;8.690;2023-08-06T07:26:23;13.10;99.90
22908;DHT22;11620;50.050;8.690;2023-08-06T07:29:09;12.90;99.90
22908;DHT22;11620;50.050;8.690;2023-08-06T07:31:55;12.80;99.90
22908;DHT22;11620;50.050;8.690;2023-08-06T07:34:42;12.90;99.90
22908;DHT22;11620;50.050;8.690;2023-08-06T07:37:28;12.80;99.90
22908;DHT22;11620;50.050;8.690;2023-08-06T07:40:14;12.90;99.90
22908;DHT22;11620;50.050;8.690;2023-08-06T07:43:01;12.90;99.90
22908;DHT22;11620;50.050;8.690;2023-08-06T07:45:47;12.90;99.90
22908;DHT22;11620;50.050;8.690;2023-08-06T07:48:33;13.00;99.90
22908;DHT22;11620;50.050;8.690;2023-08-06T07:51:20;12.90;99.90
22908;DHT22;11620;50.050;8.690;2023-08-06T07:54:06;12.90;99.90
22908;DHT22;11620;50.050;8.690;2023-08-06T07:56:53;13.00;99.90
22908;DHT22;11620;50.050;8.690;2023-08-06T07:59:39;13.00;99.90
22908;DHT22;11620;50.050;8.690;2023-08-06T08:02:25;13.10;99.90
22908;DHT22;11620;50.050;8.690;2023-08-06T08:05:12;13.20;99.90
22908;DHT22;11620;50.050;8.690;2023-08-06T08:07:38;13.40;99.90
22908;DHT22;11620;50.050;8.690;2023-08-06T08:10:04;13.30;99.90
22908;DHT22;11620;50.050;8.690;2023-08-06T08:12:31;13.30;99.90
22908;DHT22;11620;50.050;8.690;2023-08-06T08:14:57;13.30;99.90
22908;DHT22;11620;50.050;8.690;2023-08-06T08:17:23;13.30;99.90
22908;DHT22;11620;50.050;8.690;2023-08-06T08:19:49;13.30;99.90
22908;DHT22;11620;50.050;8.690;2023-08-06T08:22:15;13.40;99.90
22908;DHT22;11620;50.050;8.690;2023-08-06T08:24:41;13.40;99.90
22908;DHT22;11620;50.050;8.690;2023-08-06T08:27:07;13.70;99.90
22908;DHT22;11620;50.050;8.690;2023-08-06T08:29:33;13.60;99.90
22908;DHT22;11620;50.050;8.690;2023-08-06T08:31:59;13.70;99.90
22908;DHT22;11620;50.050;8.690;2023-08-06T08:34:25;14.00;99.90
22908;DHT22;11620;50.050;8.690;2023-08-06T08:36:51;14.30;99.90
22908;DHT22;11620;50.050;8.690;2023-08-06T08:39:17;14.60;99.90
22908;DHT22;11620;50.050;8.690;2023-08-06T08:41:43;14.80;99.90
22908;DHT22;11620;50.050;8.690;2023-08-06T08:44:10;14.90;99.90
22908;DHT22;11620;50.050;8.690;2023-08-06T08:46:37;15.20;99.90
22908;DHT22;11620;50.050;8.690;2023-08-06T08:49:04;15.30;99.90
22908;DHT22;11620;50.050;8.690;2023-08-06T08:51:31;15.10;99.90
22908;DHT22;11620;50.050;8.690;2023-08-06T08:53:57;14.90;99.90
22908;DHT22;11620;50.050;8.690;2023-08-06T08:56:24;15.20;99.90
22908;DHT22;11620;50.050;8.690;2023-08-06T08:58:50;15.20;99.90
22908;DHT22;11620;50.050;8.690;2023-08-06T09:01:22;15.30;99.90
22908;DHT22;11620;50.050;8.690;2023-08-06T09:03:48;15.80;99.90
22908;DHT22;11620;50.050;8.690;2023-08-06T09:06:15;15.80;99.90
22908;DHT22;11620;50.050;8.690;2023-08-06T09:11:37;16.10;99.90
22908;DHT22;11620;50.050;8.690;2023-08-06T09:14:07;16.20;99.90
22908;DHT22;11620;50.050;8.690;2023-08-06T09:16:37;16.30;99.90
22908;DHT22;11620;50.050;8.690;2023-08-06T09:19:11;16.30;99.90
22908;DHT22;11620;50.050;8.690;2023-08-06T09:21:39;16.20;99.90
22908;DHT22;11620;50.050;8.690;2023-08-06T09:24:25;15.70;99.90
22908;DHT22;11620;50.050;8.690;2023-08-06T09:27:13;15.50;99.90
22908;DHT22;11620;50.050;8.690;2023-08-06T09:30:00;15.50;99.90
22908;DHT22;11620;50.050;8.690;2023-08-06T09:32:47;15.20;99.90
22908;DHT22;11620;50.050;8.690;2023-08-06T09:35:33;15.10;99.90
22908;DHT22;11620;50.050;8.690;2023-08-06T09:38:20;15.20;99.90
22908;DHT22;11620;50.050;8.690;2023-08-06T09:41:07;15.80;99.90
22908;DHT22;11620;50.050;8.690;2023-08-06T09:43:54;16.20;99.90
22908;DHT22;11620;50.050;8.690;2023-08-06T09:46:40;16.40;99.90
22908;DHT22;11620;50.050;8.690;2023-08-06T09:52:20;16.30;99.90
22908;DHT22;11620;50.050;8.690;2023-08-06T09:55:07;16.10;99.90
22908;DHT22;11620;50.050;8.690;2023-08-06T09:57:54;15.60;99.90
22908;DHT22;11620;50.050;8.690;2023-08-06T10:00:41;15.50;99.90
22908;DHT22;11620;50.050;8.690;2023-08-06T10:03:28;15.60;99.90
22908;DHT22;11620;50.050;8.690;2023-08-06T10:06:15;15.80;99.90
22908;DHT22;11620;50.050;8.690;2023-08-06T10:09:01;15.90;99.90
22908;DHT22;11620;50.050;8.690;2023-08-06T10:11:50;15.60;99.90
22908;DHT22;11620;50.050;8.690;2023-08-06T10:14:37;15.50;99.90
22908;DHT22;11620;50.050;8.690;2023-08-06T10:17:26;15.40;99.90
22908;DHT22;11620;50.050;8.690;2023-08-06T10:20:13;15.50;99.90
22908;DHT22;11620;50.050;8.690;2023-08-06T10:23:01;15.40;99.90
22908;DHT22;11620;50.050;8.690;2023-08-06T10:25:53;15.50;99.90
22908;DHT22;11620;50.050;8.690;2023-08-06T10:28:41;15.80;99.90
22908;DHT22;11620;50.050;8.690;2023-08-06T10:31:07;15.90;99.90
22908;DHT22;11620;50.050;8.690;2023-08-06T10:33:47;15.90;99.90
22908;DHT22;11620;50.050;8.690;2023-08-06T10:36:14;16.00;99.90
22908;DHT22;11620;50.050;8.690;2023-08-06T10:38:48;16.20;99.90
22908;DHT22;11620;50.050;8.690;2023-08-06T10:41:28;16.40;99.90
22908;DHT22;11620;50.050;8.690;2023-08-06T10:44:08;16.60;99.90
22908;DHT22;11620;50.050;8.690;2023-08-06T10:46:34;17.10;99.90
22908;DHT22;11620;50.050;8.690;2023-08-06T10:49:00;17.30;99.90
22908;DHT22;11620;50.050;8.690;2023-08-06T10:51:26;17.30;99.90
22908;DHT22;11620;50.050;8.690;2023-08-06T10:53:53;17.20;99.90
22908;DHT22;11620;50.050;8.690;2023-08-06T10:56:24;16.90;99.90
22908;DHT22;11620;50.050;8.690;2023-08-06T10:58:53;17.00;99.90
22908;DHT22;11620;50.050;8.690;2023-08-06T11:01:21;17.40;99.90
22908;DHT22;11620;50.050;8.690;2023-08-06T11:03:48;17.70;99.90
22908;DHT22;11620;50.050;8.690;2023-08-06T11:06:20;18.10;99.90
22908;DHT22;11620;50.050;8.690;2023-08-06T11:08:53;18.30;99.90
22908;DHT22;11620;50.050;8.690;2023-08-06T11:11:20;18.40;99.90
22908;DHT22;11620;50.050;8.690;2023-08-06T11:13:48;19.00;99.90
22908;DHT22;11620;50.050;8.690;2023-08-06T11:16:16;19.60;99.90
22908;DHT22;11620;50.050;8.690;2023-08-06T11:19:01;20.10;99.90
22908;DHT22;11620;50.050;8.690;2023-08-06T11:21:48;20.10;99.90
22908;DHT22;11620;50.050;8.690;2023-08-06T11:24:34;19.90;99.90
22908;DHT22;11620;50.050;8.690;2023-08-06T11:27:20;19.10;99.90
22908;DHT22;11620;50.050;8.690;2023-08-06T11:30:07;18.60;99.90
22908;DHT22;11620;50.050;8.690;2023-08-06T11:32:53;18.50;99.90
22908;DHT22;11620;50.050;8.690;2023-08-06T11:35:40;18.70;99.90
22908;DHT22;11620;50.050;8.690;2023-08-06T11:38:29;18.60;99.90
22908;DHT22;11620;50.050;8.690;2023-08-06T11:41:18;18.30;99.90
22908;DHT22;11620;50.050;8.690;2023-08-06T11:44:04;17.90;99.90
22908;DHT22;11620;50.050;8.690;2023-08-06T11:46:55;17.40;99.90
22908;DHT22;11620;50.050;8.690;2023-08-06T11:49:48;17.40;99.90
22908;DHT22;11620;50.050;8.690;2023-08-06T11:52:39;17.00;99.90
22908;DHT22;11620;50.050;8.690;2023-08-06T11:55:26;16.40;99.90
22908;DHT22;11620;50.050;8.690;2023-08-06T11:58:12;16.20;99.90
22908;DHT22;11620;50.050;8.690;2023-08-06T12:01:02;16.10;99.90
22908;DHT22;11620;50.050;8.690;2023-08-06T12:03:49;16.10;99.90
22908;DHT22;11620;50.050;8.690;2023-08-06T12:06:42;16.00;99.90
22908;DHT22;11620;50.050;8.690;2023-08-06T12:09:29;15.90;99.90
22908;DHT22;11620;50.050;8.690;2023-08-06T12:11:55;15.90;99.90
22908;DHT22;11620;50.050;8.690;2023-08-06T12:14:21;15.80;99.90
22908;DHT22;11620;50.050;8.690;2023-08-06T12:16:47;15.80;99.90
22908;DHT22;11620;50.050;8.690;2023-08-06T12:19:13;15.60;99.90
22908;DHT22;11620;50.050;8.690;2023-08-06T12:21:39;15.60;99.90
22908;DHT22;11620;50.050;8.690;2023-08-06T12:24:05;15.60;99.90
22908;DHT22;11620;50.050;8.690;2023-08-06T12:26:33;15.60;99.90
22908;DHT22;11620;50.050;8.690;2023-08-06T12:28:59;15.60;99.90
22908;DHT22;11620;50.050;8.690;2023-08-06T12:31:25;15.60;99.90
22908;DHT22;11620;50.050;8.690;2023-08-06T12:33:51;15.60;99.90
22908;DHT22;11620;50.050;8.690;2023-08-06T12:36:17;15.50;99.90
22908;DHT22;11620;50.050;8.690;2023-08-06T12:38:43;15.80;99.90
22908;DHT22;11620;50.050;8.690;2023-08-06T12:41:09;16.00;99.90
22908;DHT22;11620;50.050;8.690;2023-08-06T12:43:35;16.10;99.90
22908;DHT22;11620;50.050;8.690;2023-08-06T12:46:01;16.20;99.90
22908;DHT22;11620;50.050;8.690;2023-08-06T12:48:27;16.30;99.90
22908;DHT22;11620;50.050;8.690;2023-08-06T12:50:53;16.20;99.90
22908;DHT22;11620;50.050;8.690;2023-08-06T12:53:19;15.90;99.90
22908;DHT22;11620;50.050;8.690;2023-08-06T12:55:46;15.80;99.90
22908;DHT22;11620;50.050;8.690;2023-08-06T12:58:12;15.90;99.90
22908;DHT22;11620;50.050;8.690;2023-08-06T13:00:38;16.00;99.90
22908;DHT22;11620;50.050;8.690;2023-08-06T13:03:23;16.10;99.90
22908;DHT22;11620;50.050;8.690;2023-08-06T13:06:09;16.00;99.90
22908;DHT22;11620;50.050;8.690;2023-08-06T13:08:59;16.10;99.90
22908;DHT22;11620;50.050;8.690;2023-08-06T13:11:45;15.80;99.90
22908;DHT22;11620;50.050;8.690;2023-08-06T13:14:36;15.90;99.90
22908;DHT22;11620;50.050;8.690;2023-08-06T13:17:23;15.80;99.90
22908;DHT22;11620;50.050;8.690;2023-08-06T13:20:09;15.80;99.90
22908;DHT22;11620;50.050;8.690;2023-08-06T13:22:58;15.80;99.90
22908;DHT22;11620;50.050;8.690;2023-08-06T13:25:47;15.70;99.90
22908;DHT22;11620;50.050;8.690;2023-08-06T13:28:33;15.70;99.90
22908;DHT22;11620;50.050;8.690;2023-08-06T13:31:19;15.50;99.90
22908;DHT22;11620;50.050;8.690;2023-08-06T13:34:06;15.40;99.90
22908;DHT22;11620;50.050;8.690;2023-08-06T13:36:52;15.30;99.90
22908;DHT22;11620;50.050;8.690;2023-08-06T13:39:38;15.30;99.90
22908;DHT22;11620;50.050;8.690;2023-08-06T13:42:25;15.30;99.90
22908;DHT22;11620;50.050;8.690;2023-08-06T13:45:11;15.20;99.90
22908;DHT22;11620;50.050;8.690;2023-08-06T13:47:57;15.10;99.90
22908;DHT22;11620;50.050;8.690;2023-08-06T13:50:44;15.10;99.90
22908;DHT22;11620;50.050;8.690;2023-08-06T13:53:31;15.20;99.90
22908;DHT22;11620;50.050;8.690;2023-08-06T13:56:17;15.30;99.90
22908;DHT22;11620;50.050;8.690;2023-08-06T13:59:03;15.40;99.90
22908;DHT22;11620;50.050;8.690;2023-08-06T14:01:50;15.10;99.90
22908;DHT22;11620;50.050;8.690;2023-08-06T14:04:39;15.10;99.90
22908;DHT22;11620;50.050;8.690;2023-08-06T14:07:26;14.90;99.90
22908;DHT22;11620;50.050;8.690;2023-08-06T14:10:12;14.70;99.90
22908;DHT22;11620;50.050;8.690;2023-08-06T14:12:59;14.50;99.90
22908;DHT22;11620;50.050;8.690;2023-08-06T14:15:45;14.50;99.90
22908;DHT22;11620;50.050;8.690;2023-08-06T14:18:35;14.60;99.90
22908;DHT22;11620;50.050;8.690;2023-08-06T14:21:23;14.70;99.90
22908;DHT22;11620;50.050;8.690;2023-08-06T14:24:10;14.70;99.90
22908;DHT22;11620;50.050;8.690;2023-08-06T14:26:56;14.70;99.90
22908;DHT22;11620;50.050;8.690;2023-08-06T14:29:42;14.70;99.90
22908;DHT22;11620;50.050;8.690;2023-08-06T14:32:29;14.40;99.90
22908;DHT22;11620;50.050;8.690;2023-08-06T14:35:15;14.30;99.90
22908;DHT22;11620;50.050;8.690;2023-08-06T14:38:02;14.30;99.90
22908;DHT22;11620;50.050;8.690;2023-08-06T14:40:48;14.40;99.90
22908;DHT22;11620;50.050;8.690;2023-08-06T14:43:34;14.60;99.90
22908;DHT22;11620;50.050;8.690;2023-08-06T14:46:21;14.50;99.90
22908;DHT22;11620;50.050;8.690;2023-08-06T14:49:07;14.30;99.90
22908;DHT22;11620;50.050;8.690;2023-08-06T14:51:53;14.40;99.90
22908;DHT22;11620;50.050;8.690;2023-08-06T14:54:40;14.20;99.90
22908;DHT22;11620;50.050;8.690;2023-08-06T14:57:26;14.00;99.90
22908;DHT22;11620;50.050;8.690;2023-08-06T15:00:14;14.10;99.90
22908;DHT22;11620;50.050;8.690;2023-08-06T15:03:00;14.20;99.90
22908;DHT22;11620;50.050;8.690;2023-08-06T15:05:48;14.20;99.90
22908;DHT22;11620;50.050;8.690;2023-08-06T15:08:34;14.20;99.90
22908;DHT22;11620;50.050;8.690;2023-08-06T15:11:20;14.10;99.90
22908;DHT22;11620;50.050;8.690;2023-08-06T15:14:07;14.00;99.90
22908;DHT22;11620;50.050;8.690;2023-08-06T15:16:53;14.10;99.90
22908;DHT22;11620;50.050;8.690;2023-08-06T15:19:42;14.00;99.90
22908;DHT22;11620;50.050;8.690;2023-08-06T15:22:28;14.10;99.90
22908;DHT22;11620;50.050;8.690;2023-08-06T15:25:17;13.80;99.90
22908;DHT22;11620;50.050;8.690;2023-08-06T15:28:04;13.80;99.90
22908;DHT22;11620;50.050;8.690;2023-08-06T15:30:51;13.90;99.90
22908;DHT22;11620;50.050;8.690;2023-08-06T15:33:38;13.90;99.90
22908;DHT22;11620;50.050;8.690;2023-08-06T15:36:24;14.10;99.90
22908;DHT22;11620;50.050;8.690;2023-08-06T15:39:11;14.10;99.90
22908;DHT22;11620;50.050;8.690;2023-08-06T15:41:57;14.10;99.90
22908;DHT22;11620;50.050;8.690;2023-08-06T15:44:44;14.10;99.90
22908;DHT22;11620;50.050;8.690;2023-08-06T15:47:30;14.00;99.90
22908;DHT22;11620;50.050;8.690;2023-08-06T15:50:17;14.10;99.90
22908;DHT22;11620;50.050;8.690;2023-08-06T15:53:03;14.20;99.90
22908;DHT22;11620;50.050;8.690;2023-08-06T15:55:49;14.30;99.90
22908;DHT22;11620;50.050;8.690;2023-08-06T15:58:36;14.30;99.90
22908;DHT22;11620;50.050;8.690;2023-08-06T16:01:22;14.40;99.90
22908;DHT22;11620;50.050;8.690;2023-08-06T16:04:08;14.30;99.90
22908;DHT22;11620;50.050;8.690;2023-08-06T16:06:55;14.40;99.90
22908;DHT22;11620;50.050;8.690;2023-08-06T16:09:42;14.30;99.90
22908;DHT22;11620;50.050;8.690;2023-08-06T16:12:29;14.30;99.90
22908;DHT22;11620;50.050;8.690;2023-08-06T16:15:15;14.50;99.90
22908;DHT22;11620;50.050;8.690;2023-08-06T16:18:06;14.50;99.90
22908;DHT22;11620;50.050;8.690;2023-08-06T16:20:52;14.50;99.90
22908;DHT22;11620;50.050;8.690;2023-08-06T16:23:39;14.40;99.90
22908;DHT22;11620;50.050;8.690;2023-08-06T16:26:26;14.50;99.90
22908;DHT22;11620;50.050;8.690;2023-08-06T16:29:12;14.50;99.90
22908;DHT22;11620;50.050;8.690;2023-08-06T16:31:58;14.60;99.90
22908;DHT22;11620;50.050;8.690;2023-08-06T16:34:46;14.40;99.90
22908;DHT22;11620;50.050;8.690;2023-08-06T16:37:32;14.20;99.90
22908;DHT22;11620;50.050;8.690;2023-08-06T16:40:18;14.30;99.90
22908;DHT22;11620;50.050;8.690;2023-08-06T16:43:05;14.10;99.90
22908;DHT22;11620;50.050;8.690;2023-08-06T16:45:54;14.10;99.90
22908;DHT22;11620;50.050;8.690;2023-08-06T16:48:41;14.00;99.90
22908;DHT22;11620;50.050;8.690;2023-08-06T16:51:28;14.00;99.90
22908;DHT22;11620;50.050;8.690;2023-08-06T16:54:14;14.10;99.90
22908;DHT22;11620;50.050;8.690;2023-08-06T16:57:00;13.90;99.90
22908;DHT22;11620;50.050;8.690;2023-08-06T16:59:47;13.80;99.90
22908;DHT22;11620;50.050;8.690;2023-08-06T17:02:33;13.80;99.90
22908;DHT22;11620;50.050;8.690;2023-08-06T17:05:20;13.80;99.90
22908;DHT22;11620;50.050;8.690;2023-08-06T17:08:06;13.70;99.90
22908;DHT22;11620;50.050;8.690;2023-08-06T17:10:52;13.80;99.90
22908;DHT22;11620;50.050;8.690;2023-08-06T17:13:39;13.60;99.90
22908;DHT22;11620;50.050;8.690;2023-08-06T17:16:25;13.60;99.90
22908;DHT22;11620;50.050;8.690;2023-08-06T17:19:11;13.50;99.90